createdAt,value
2019-04-04T00:01:26.243Z,9.07
2019-04-04T00:04:29.202Z,9.05
2019-04-04T00:07:32.491Z,9.03
2019-04-04T00:10:35.766Z,9.43
2019-04-04T00:13:40.094Z,9.20
2019-04-04T00:16:44.225Z,9.00
2019-04-04T00:19:47.575Z,8.88
2019-04-04T00:22:50.897Z,9.01
2019-04-04T00:25:53.847Z,8.97
2019-04-04T00:28:56.890Z,8.89
2019-04-04T00:31:59.850Z,9.00
2019-04-04T00:35:03.171Z,9.02
2019-04-04T00:38:07.074Z,8.88
2019-04-04T00:41:12.986Z,8.91
2019-04-04T00:44:16.474Z,8.95
2019-04-04T00:47:19.432Z,8.89
2019-04-04T00:50:22.479Z,8.74
2019-04-04T00:53:25.469Z,8.86
2019-04-04T00:56:28.418Z,8.73
2019-04-04T00:59:31.356Z,8.85
2019-04-04T01:02:34.663Z,8.76
2019-04-04T01:05:37.593Z,8.95
2019-04-04T01:08:40.549Z,8.90
2019-04-04T01:11:43.483Z,8.90
2019-04-04T01:14:46.439Z,8.90
2019-04-04T01:17:49.396Z,8.95
2019-04-04T01:20:53.019Z,8.84
2019-04-04T01:23:58.118Z,8.84
2019-04-04T01:27:01.227Z,8.70
2019-04-04T01:30:07.056Z,8.78
2019-04-04T01:33:11.365Z,8.56
2019-04-04T01:36:14.725Z,8.81
2019-04-04T01:39:18.428Z,8.85
2019-04-04T01:42:21.331Z,8.91
2019-04-04T01:45:24.915Z,8.73
2019-04-04T01:48:28.464Z,8.53
2019-04-04T01:51:31.379Z,8.57
2019-04-04T01:54:34.605Z,8.38
2019-04-04T01:57:38.913Z,8.52
2019-04-04T02:00:45.644Z,8.35
2019-04-04T02:03:48.528Z,8.38
2019-04-04T02:06:51.442Z,8.50
2019-04-04T02:09:54.664Z,8.48
2019-04-04T02:12:58.675Z,8.43
2019-04-04T02:16:01.869Z,8.46
2019-04-04T02:19:04.780Z,8.36
2019-04-04T02:22:08.079Z,8.31
2019-04-04T02:25:12.523Z,8.19
2019-04-04T02:28:15.774Z,8.03
2019-04-04T02:31:21.063Z,7.89
2019-04-04T02:34:24.802Z,7.82
2019-04-04T02:37:27.709Z,7.78
2019-04-04T02:40:31.000Z,7.80
2019-04-04T02:43:33.932Z,7.86
2019-04-04T02:46:37.208Z,8.12
2019-04-04T02:49:40.893Z,8.27
2019-04-04T02:52:46.183Z,7.97
2019-04-04T02:55:49.366Z,8.00
2019-04-04T02:58:52.357Z,8.09
2019-04-04T03:01:55.272Z,8.23
2019-04-04T03:04:59.756Z,8.07
2019-04-04T03:08:04.241Z,7.64
2019-04-04T03:11:07.471Z,7.61
2019-04-04T03:14:10.744Z,7.86
2019-04-04T03:17:13.684Z,7.86
2019-04-04T03:20:17.558Z,7.60
2019-04-04T03:23:20.645Z,7.70
2019-04-04T03:26:23.589Z,7.47
2019-04-04T03:29:27.239Z,7.86
2019-04-04T03:32:30.528Z,7.69
2019-04-04T03:35:33.829Z,7.60
2019-04-04T03:38:37.188Z,7.83
2019-04-04T03:41:40.427Z,7.64
2019-04-04T03:44:43.686Z,7.72
2019-04-04T03:47:46.602Z,7.50
2019-04-04T03:50:49.532Z,7.43
2019-04-04T03:53:56.166Z,7.38
2019-04-04T03:56:59.299Z,7.67
2019-04-04T04:00:05.581Z,7.46
2019-04-04T04:03:07.252Z,7.43
2019-04-04T04:06:10.575Z,7.64
2019-04-04T04:09:14.159Z,7.43
2019-04-04T04:12:17.052Z,7.48
2019-04-04T04:15:20.065Z,7.38
2019-04-04T04:18:23.646Z,7.48
2019-04-04T04:21:26.917Z,7.60
2019-04-04T04:24:30.433Z,7.68
2019-04-04T04:27:33.506Z,7.62
2019-04-04T04:30:39.339Z,7.40
2019-04-04T04:33:41.572Z,7.33
2019-04-04T04:36:47.975Z,7.32
2019-04-04T04:39:51.819Z,7.68
2019-04-04T04:42:54.738Z,7.72
2019-04-04T04:45:58.045Z,7.83
2019-04-04T04:49:03.439Z,7.61
2019-04-04T04:52:06.100Z,7.57
2019-04-04T04:55:11.850Z,7.61
2019-04-04T04:58:13.874Z,7.48
2019-04-04T05:01:18.300Z,7.48
2019-04-04T05:04:21.607Z,7.74
2019-04-04T05:07:24.528Z,7.56
2019-04-04T05:10:27.494Z,7.43
2019-04-04T05:13:30.496Z,7.55
2019-04-04T05:16:33.419Z,7.57
2019-04-04T05:19:36.714Z,7.40
2019-04-04T05:22:40.565Z,7.46
2019-04-04T05:25:52.037Z,7.48
2019-04-04T05:28:49.141Z,7.31
2019-04-04T05:31:52.366Z,7.57
2019-04-04T05:34:55.292Z,7.66
2019-04-04T05:37:58.203Z,7.74
2019-04-04T05:41:01.876Z,7.66
2019-04-04T05:44:04.763Z,7.79
2019-04-04T05:47:07.659Z,7.74
2019-04-04T05:50:11.931Z,7.58
2019-04-04T05:53:15.418Z,7.70
2019-04-04T05:56:18.346Z,7.88
2019-04-04T05:59:23.672Z,7.66
2019-04-04T06:02:27.232Z,7.58
2019-04-04T06:05:31.823Z,7.84
2019-04-04T06:08:34.961Z,7.72
2019-04-04T06:11:37.896Z,7.75
2019-04-04T06:14:40.799Z,7.95
2019-04-04T06:17:44.347Z,8.09
2019-04-04T06:20:48.613Z,7.92
2019-04-04T06:23:52.007Z,7.75
2019-04-04T06:26:54.899Z,7.83
2019-04-04T06:29:58.242Z,7.72
2019-04-04T06:33:04.013Z,7.76
2019-04-04T06:36:06.294Z,7.88
2019-04-04T06:39:09.532Z,8.02
2019-04-04T06:42:12.456Z,8.06
2019-04-04T06:45:16.138Z,7.91
2019-04-04T06:48:19.202Z,8.09
2019-04-04T06:51:22.122Z,8.10
2019-04-04T06:54:26.278Z,8.08
2019-04-04T06:57:29.956Z,8.18
2019-04-04T07:00:32.904Z,7.98
2019-04-04T07:03:35.818Z,8.08
2019-04-04T07:06:41.652Z,8.11
2019-04-04T07:09:43.559Z,8.01
2019-04-04T07:12:48.863Z,8.10
2019-04-04T07:16:05.385Z,8.10
2019-04-04T07:18:56.102Z,8.09
2019-04-04T07:21:59.003Z,8.14
2019-04-04T07:25:05.766Z,8.34
2019-04-04T07:28:06.742Z,8.44
2019-04-04T07:31:10.631Z,8.36
2019-04-04T07:34:14.290Z,8.32
2019-04-04T07:37:17.359Z,8.27
2019-04-04T07:40:20.642Z,8.36
2019-04-04T07:43:23.556Z,8.32
2019-04-04T07:46:26.476Z,8.36
2019-04-04T07:49:29.373Z,8.31
2019-04-04T07:52:33.624Z,8.38
2019-04-04T07:55:37.102Z,8.51
2019-04-04T07:58:40.020Z,8.59
2019-04-04T08:01:50.909Z,8.69
2019-04-04T08:04:48.156Z,8.59
2019-04-04T08:07:51.054Z,8.68
2019-04-04T08:10:55.115Z,8.75
2019-04-04T08:13:58.041Z,8.73
2019-04-04T08:17:00.938Z,8.67
2019-04-04T08:20:04.314Z,8.68
2019-04-04T08:23:07.992Z,8.74
2019-04-04T08:26:11.262Z,8.71
2019-04-04T08:29:14.171Z,8.78
2019-04-04T08:32:17.475Z,8.87
2019-04-04T08:35:20.402Z,8.83
2019-04-04T08:38:23.654Z,8.83
2019-04-04T08:41:26.955Z,8.76
2019-04-04T08:44:29.849Z,8.75
2019-04-04T08:47:33.168Z,8.74
2019-04-04T08:50:36.737Z,8.73
2019-04-04T08:53:40.568Z,8.69
2019-04-04T08:56:43.510Z,8.69
2019-04-04T08:59:46.726Z,8.73
2019-04-04T09:02:49.652Z,8.69
2019-04-04T09:05:52.650Z,8.59
2019-04-04T09:08:56.675Z,8.61
2019-04-04T09:11:59.904Z,8.70
2019-04-04T09:15:04.380Z,8.70
2019-04-04T09:18:07.727Z,8.65
2019-04-04T09:21:11.314Z,8.76
2019-04-04T09:24:15.071Z,8.68
2019-04-04T09:27:17.973Z,8.62
2019-04-04T09:30:21.190Z,8.65
2019-04-04T09:33:24.213Z,8.56
2019-04-04T09:36:27.159Z,8.60
2019-04-04T09:39:30.080Z,8.46
2019-04-04T09:42:32.998Z,8.56
2019-04-04T09:45:35.896Z,8.56
2019-04-04T09:48:38.808Z,8.58
2019-04-04T09:51:41.728Z,8.62
2019-04-04T09:54:45.041Z,8.58
2019-04-04T09:57:48.323Z,8.54
2019-04-04T10:00:51.631Z,8.57
2019-04-04T10:03:54.567Z,8.60
2019-04-04T10:06:57.468Z,8.57
2019-04-04T10:10:00.392Z,8.61
2019-04-04T10:13:03.595Z,8.58
2019-04-04T10:16:06.863Z,8.54
2019-04-04T10:19:09.784Z,8.52
2019-04-04T10:22:13.865Z,8.54
2019-04-04T10:25:16.787Z,8.53
2019-04-04T10:28:23.104Z,8.52
2019-04-04T10:31:25.188Z,8.58
2019-04-04T10:34:28.432Z,8.54
2019-04-04T10:37:31.448Z,8.43
2019-04-04T10:40:34.671Z,8.16
2019-04-04T10:43:37.577Z,8.55
2019-04-04T10:46:40.854Z,8.52
2019-04-04T10:49:44.900Z,8.45
2019-04-04T10:52:47.800Z,8.46
2019-04-04T10:55:51.046Z,8.45
2019-04-04T10:58:53.966Z,8.55
2019-04-04T11:01:57.758Z,8.51
2019-04-04T11:05:02.065Z,8.51
2019-04-04T11:08:05.176Z,8.48
2019-04-04T11:11:09.551Z,8.45
2019-04-04T11:14:12.460Z,8.47
2019-04-04T11:17:15.703Z,8.55
2019-04-04T11:20:19.253Z,8.48
2019-04-04T11:23:22.154Z,8.38
2019-04-04T11:26:25.267Z,8.34
2019-04-04T11:29:28.195Z,8.19
2019-04-04T11:32:31.118Z,8.30
2019-04-04T11:35:34.066Z,8.22
2019-04-04T11:38:36.964Z,8.27
2019-04-04T11:41:40.253Z,8.32
2019-04-04T11:44:43.474Z,8.18
2019-04-04T11:47:46.787Z,8.32
2019-04-04T11:50:50.070Z,8.42
2019-04-04T11:53:53.261Z,8.30
2019-04-04T11:56:56.207Z,8.41
2019-04-04T11:59:59.156Z,8.46
2019-04-04T12:03:02.541Z,8.56
2019-04-04T12:06:07.166Z,8.51
2019-04-04T12:09:10.577Z,8.52
2019-04-04T12:12:14.364Z,8.71
2019-04-04T12:15:17.552Z,8.63
2019-04-04T12:18:20.474Z,8.63
2019-04-04T12:21:23.402Z,8.65
2019-04-04T12:24:26.397Z,8.69
2019-04-04T12:27:29.334Z,8.74
2019-04-04T12:30:32.234Z,8.79
2019-04-04T12:33:35.493Z,8.83
2019-04-04T12:36:38.412Z,8.76
2019-04-04T12:39:44.287Z,8.56
2019-04-04T12:42:46.563Z,8.57
2019-04-04T12:45:49.460Z,8.64
2019-04-04T12:48:52.751Z,8.68
2019-04-04T12:51:55.686Z,8.69
2019-04-04T12:54:58.588Z,8.78
2019-04-04T12:58:01.521Z,8.86
2019-04-04T13:01:04.448Z,9.03
2019-04-04T13:04:07.714Z,8.90
2019-04-04T13:07:10.636Z,8.95
2019-04-04T13:10:14.037Z,9.06
2019-04-04T13:13:17.598Z,9.04
2019-04-04T13:16:20.817Z,8.95
2019-04-04T13:19:24.029Z,8.96
2019-04-04T13:22:27.353Z,8.88
2019-04-04T13:25:30.239Z,8.77
2019-04-04T13:28:33.179Z,8.72
2019-04-04T13:31:36.962Z,8.57
2019-04-04T13:34:39.861Z,8.54
2019-04-04T13:37:42.791Z,8.52
2019-04-04T13:40:46.132Z,8.55
2019-04-04T13:43:49.143Z,8.46
2019-04-04T13:46:52.099Z,8.51
2019-04-04T13:49:55.302Z,8.58
2019-04-04T13:52:58.216Z,8.51
2019-04-04T13:56:01.119Z,8.55
2019-04-04T13:59:05.934Z,8.65
2019-04-04T14:02:08.890Z,8.62
2019-04-04T14:05:14.287Z,8.65
2019-04-04T14:08:17.441Z,8.62
2019-04-04T14:11:20.643Z,8.55
2019-04-04T14:14:24.259Z,8.63
2019-04-04T14:17:27.528Z,8.63
2019-04-04T14:20:30.445Z,8.69
2019-04-04T14:23:34.032Z,8.68
2019-04-04T14:26:36.931Z,8.64
2019-04-04T14:29:40.542Z,8.67
2019-04-04T14:32:43.547Z,8.65
2019-04-04T14:35:46.460Z,8.63
2019-04-04T14:38:49.395Z,8.76
2019-04-04T14:41:52.291Z,8.76
2019-04-04T14:44:55.574Z,8.79
2019-04-04T14:47:58.494Z,8.81
2019-04-04T14:51:01.409Z,8.95
2019-04-04T14:54:04.344Z,8.85
2019-04-04T14:57:07.266Z,8.84
2019-04-04T15:00:11.813Z,8.75
2019-04-04T15:03:14.712Z,8.79
2019-04-04T15:06:18.077Z,8.72
2019-04-04T15:09:20.984Z,8.69
2019-04-04T15:12:23.899Z,8.64
2019-04-04T15:15:26.824Z,8.57
2019-04-04T15:18:29.803Z,8.54
2019-04-04T15:21:32.709Z,8.54
2019-04-04T15:24:35.960Z,8.56
2019-04-04T15:27:38.883Z,8.51
2019-04-04T15:30:41.793Z,8.57
2019-04-04T15:33:45.069Z,8.49
2019-04-04T15:36:48.324Z,8.43
2019-04-04T15:39:51.243Z,8.44
2019-04-04T15:42:54.514Z,8.40
2019-04-04T15:45:57.904Z,8.41
2019-04-04T15:49:01.197Z,8.33
2019-04-04T15:52:04.396Z,8.41
2019-04-04T15:55:07.604Z,8.45
2019-04-04T15:58:10.611Z,8.39
2019-04-04T16:01:13.873Z,8.38
2019-04-04T16:04:16.809Z,8.36
2019-04-04T16:07:19.820Z,8.43
2019-04-04T16:10:22.739Z,8.51
2019-04-04T16:13:26.746Z,8.53
2019-04-04T16:16:29.672Z,8.54
2019-04-04T16:19:32.583Z,8.52
2019-04-04T16:22:35.840Z,8.47
2019-04-04T16:25:39.155Z,8.42
2019-04-04T16:28:42.602Z,8.38
2019-04-04T16:31:45.512Z,8.43
2019-04-04T16:34:48.436Z,8.35
2019-04-04T16:37:51.332Z,8.31
2019-04-04T16:40:54.616Z,8.37
2019-04-04T16:43:58.620Z,8.42
2019-04-04T16:47:01.608Z,8.37
2019-04-04T16:50:04.966Z,8.44
2019-04-04T16:53:08.365Z,8.43
2019-04-04T16:56:11.285Z,8.45
2019-04-04T16:59:14.214Z,8.44
2019-04-04T17:02:17.129Z,8.30
2019-04-04T17:05:20.360Z,8.41
2019-04-04T17:08:23.272Z,8.46
2019-04-04T17:11:26.192Z,8.50
2019-04-04T17:14:29.619Z,8.47
2019-04-04T17:17:32.540Z,8.50
2019-04-04T17:20:36.446Z,8.49
2019-04-04T17:23:39.465Z,8.52
2019-04-04T17:26:42.652Z,8.47
2019-04-04T17:29:46.459Z,8.44
2019-04-04T17:32:50.252Z,8.41
2019-04-04T17:35:53.312Z,8.39
2019-04-04T17:38:56.252Z,8.35
2019-04-04T17:41:59.716Z,8.35
2019-04-04T17:45:03.469Z,8.31
2019-04-04T17:48:07.408Z,8.31
2019-04-04T17:51:11.143Z,8.28
2019-04-04T17:54:15.155Z,8.31
2019-04-04T17:57:18.136Z,8.20
2019-04-04T18:00:24.204Z,8.22
2019-04-04T18:03:27.153Z,8.21
2019-04-04T18:06:30.063Z,8.26
2019-04-04T18:09:34.550Z,8.19
2019-04-04T18:12:40.527Z,8.19
2019-04-04T18:15:42.762Z,8.14
2019-04-04T18:18:45.788Z,8.10
2019-04-04T18:21:49.061Z,8.17
2019-04-04T18:24:52.078Z,8.14
2019-04-04T18:27:55.088Z,8.13
2019-04-04T18:30:57.987Z,8.16
2019-04-04T18:34:01.270Z,8.25
2019-04-04T18:37:04.629Z,8.21
2019-04-04T18:40:08.419Z,8.17
2019-04-04T18:43:11.378Z,8.20
2019-04-04T18:46:14.290Z,8.05
2019-04-04T18:49:17.500Z,8.13
2019-04-04T18:52:20.793Z,8.09
2019-04-04T18:55:23.732Z,8.10
2019-04-04T18:58:26.704Z,8.21
2019-04-04T19:01:31.089Z,8.14
2019-04-04T19:04:34.033Z,8.10
2019-04-04T19:07:39.539Z,8.08
2019-04-04T19:10:41.763Z,8.18
2019-04-04T19:13:45.063Z,8.09
2019-04-04T19:16:48.411Z,8.15
2019-04-04T19:19:51.346Z,8.08
2019-04-04T19:22:54.258Z,8.06
2019-04-04T19:25:57.174Z,8.04
2019-04-04T19:29:00.490Z,7.93
2019-04-04T19:32:03.689Z,7.99
2019-04-04T19:35:07.904Z,8.03
2019-04-04T19:38:10.908Z,8.02
2019-04-04T19:41:13.843Z,8.13
2019-04-04T19:44:17.171Z,8.07
2019-04-04T19:47:20.090Z,8.00
2019-04-04T19:50:23.006Z,7.95
2019-04-04T19:53:25.918Z,7.85
2019-04-04T19:56:29.190Z,7.96
2019-04-04T19:59:32.696Z,8.09
2019-04-04T20:02:35.592Z,8.02
2019-04-04T20:05:40.172Z,7.87
2019-04-04T20:08:43.102Z,7.99
2019-04-04T20:11:46.668Z,7.96
2019-04-04T20:14:50.009Z,8.12
2019-04-04T20:17:53.307Z,8.13
2019-04-04T20:20:56.331Z,7.86
2019-04-04T20:23:59.234Z,7.82
2019-04-04T20:27:02.156Z,7.79
2019-04-04T20:30:06.361Z,7.80
2019-04-04T20:33:09.567Z,7.90
2019-04-04T20:36:12.851Z,7.86
2019-04-04T20:39:15.766Z,7.83
2019-04-04T20:42:18.671Z,7.86
2019-04-04T20:45:21.607Z,7.70
2019-04-04T20:48:24.515Z,7.95
2019-04-04T20:51:27.528Z,7.76
2019-04-04T20:54:30.807Z,7.59
2019-04-04T20:57:33.737Z,7.59
2019-04-04T21:00:38.111Z,7.55
2019-04-04T21:03:41.150Z,7.54
2019-04-04T21:06:44.355Z,7.54
2019-04-04T21:09:47.258Z,7.47
2019-04-04T21:12:50.190Z,7.51
2019-04-04T21:15:53.383Z,7.41
2019-04-04T21:18:56.549Z,7.39
2019-04-04T21:22:00.528Z,7.43
2019-04-04T21:25:04.321Z,7.43
2019-04-04T21:28:07.302Z,7.51
2019-04-04T21:31:10.257Z,7.50
2019-04-04T21:34:13.830Z,7.40
2019-04-04T21:37:16.753Z,7.45
2019-04-04T21:40:19.707Z,7.37
2019-04-04T21:43:22.946Z,7.28
2019-04-04T21:46:25.944Z,7.21
2019-04-04T21:49:28.872Z,7.45
2019-04-04T21:52:31.815Z,7.54
2019-04-04T21:55:34.727Z,7.58
2019-04-04T21:58:37.715Z,7.54
2019-04-04T22:01:40.654Z,7.41
2019-04-04T22:04:43.597Z,7.34
2019-04-04T22:07:46.521Z,7.37
2019-04-04T22:10:50.064Z,7.39
2019-04-04T22:13:53.815Z,7.37
2019-04-04T22:16:56.718Z,7.45
2019-04-04T22:19:59.968Z,7.67
2019-04-04T22:23:02.888Z,7.38
2019-04-04T22:26:05.791Z,7.41
2019-04-04T22:29:09.671Z,7.52
2019-04-04T22:32:12.675Z,7.41
2019-04-04T22:35:15.720Z,7.48
2019-04-04T22:38:18.890Z,7.44
2019-04-04T22:41:22.190Z,7.47
2019-04-04T22:44:34.582Z,7.44
2019-04-04T22:47:30.289Z,7.42
2019-04-04T22:50:33.211Z,7.52
2019-04-04T22:53:36.143Z,7.42
2019-04-04T22:56:39.720Z,7.45
2019-04-04T22:59:42.652Z,7.43
2019-04-04T23:02:45.664Z,7.48
2019-04-04T23:05:49.715Z,7.46
2019-04-04T23:08:53.647Z,7.39
2019-04-04T23:11:57.812Z,7.36
2019-04-04T23:15:00.739Z,7.43
2019-04-04T23:18:04.532Z,7.43
2019-04-04T23:21:07.794Z,7.48
2019-04-04T23:24:11.080Z,7.70
2019-04-04T23:27:13.936Z,7.68
2019-04-04T23:30:16.953Z,7.57
2019-04-04T23:33:20.232Z,7.48
2019-04-04T23:36:34.429Z,7.42
2019-04-04T23:39:28.695Z,7.37
2019-04-04T23:42:31.955Z,7.38
2019-04-04T23:45:37.091Z,7.40
2019-04-04T23:48:39.980Z,7.37
2019-04-04T23:51:43.672Z,7.39
2019-04-04T23:54:46.593Z,7.40
2019-04-04T23:57:49.497Z,7.44
